sensor_id;sensor_type;location;lat;lon;timestamp;P1;durP1;ratioP1;P2;durP2;ratioP2
438;SDS011;206;48.782;9.252;2023-03-21T00:01:12;4.97;;;4.23;;
438;SDS011;206;48.782;9.252;2023-03-21T00:03:39;5.37;;;3.27;;
438;SDS011;206;48.782;9.252;2023-03-21T00:06:07;9.50;;;4.13;;
438;SDS011;206;48.782;9.252;2023-03-21T00:08:35;4.40;;;3.70;;
438;SDS011;206;48.782;9.252;2023-03-21T00:11:02;5.80;;;4.30;;
438;SDS011;206;48.782;9.252;2023-03-21T00:13:30;4.50;;;4.03;;
438;SDS011;206;48.782;9.252;2023-03-21T00:16:03;3.80;;;3.30;;
438;SDS011;206;48.782;9.252;2023-03-21T00:18:30;4.80;;;3.57;;
438;SDS011;206;48.782;9.252;2023-03-21T00:20:56;4.80;;;4.37;;
438;SDS011;206;48.782;9.252;2023-03-21T00:23:24;4.47;;;4.17;;
438;SDS011;206;48.782;9.252;2023-03-21T00:25:50;8.73;;;4.87;;
438;SDS011;206;48.782;9.252;2023-03-21T00:28:16;4.83;;;3.90;;
438;SDS011;206;48.782;9.252;2023-03-21T00:30:41;7.47;;;4.10;;
438;SDS011;206;48.782;9.252;2023-03-21T00:33:07;5.60;;;4.33;;
438;SDS011;206;48.782;9.252;2023-03-21T00:35:33;4.93;;;3.47;;
438;SDS011;206;48.782;9.252;2023-03-21T00:37:58;6.50;;;3.97;;
438;SDS011;206;48.782;9.252;2023-03-21T00:40:24;4.13;;;3.80;;
438;SDS011;206;48.782;9.252;2023-03-21T00:42:50;6.27;;;3.23;;
438;SDS011;206;48.782;9.252;2023-03-21T00:45:15;4.30;;;3.80;;
438;SDS011;206;48.782;9.252;2023-03-21T00:47:43;6.57;;;4.20;;
438;SDS011;206;48.782;9.252;2023-03-21T00:50:09;4.37;;;3.70;;
438;SDS011;206;48.782;9.252;2023-03-21T00:52:35;5.53;;;3.93;;
438;SDS011;206;48.782;9.252;2023-03-21T00:55:02;6.33;;;3.73;;
438;SDS011;206;48.782;9.252;2023-03-21T00:57:28;4.00;;;3.80;;
438;SDS011;206;48.782;9.252;2023-03-21T00:59:54;6.53;;;4.27;;
438;SDS011;206;48.782;9.252;2023-03-21T01:02:22;5.93;;;4.27;;
438;SDS011;206;48.782;9.252;2023-03-21T01:04:50;6.13;;;4.20;;
438;SDS011;206;48.782;9.252;2023-03-21T01:07:17;4.00;;;3.40;;
438;SDS011;206;48.782;9.252;2023-03-21T01:09:43;6.50;;;4.00;;
438;SDS011;206;48.782;9.252;2023-03-21T01:12:09;4.43;;;3.87;;
438;SDS011;206;48.782;9.252;2023-03-21T01:14:35;8.83;;;4.90;;
438;SDS011;206;48.782;9.252;2023-03-21T01:17:00;4.40;;;4.13;;
438;SDS011;206;48.782;9.252;2023-03-21T01:19:26;6.73;;;4.47;;
438;SDS011;206;48.782;9.252;2023-03-21T01:21:53;5.27;;;4.23;;
438;SDS011;206;48.782;9.252;2023-03-21T01:24:20;3.67;;;3.50;;
438;SDS011;206;48.782;9.252;2023-03-21T01:26:45;10.10;;;5.10;;
438;SDS011;206;48.782;9.252;2023-03-21T01:29:11;4.40;;;3.80;;
438;SDS011;206;48.782;9.252;2023-03-21T01:31:37;4.07;;;3.87;;
438;SDS011;206;48.782;9.252;2023-03-21T01:34:02;7.80;;;4.23;;
438;SDS011;206;48.782;9.252;2023-03-21T01:36:28;6.60;;;4.73;;
438;SDS011;206;48.782;9.252;2023-03-21T01:38:54;4.67;;;4.40;;
438;SDS011;206;48.782;9.252;2023-03-21T01:41:23;5.20;;;4.77;;
438;SDS011;206;48.782;9.252;2023-03-21T01:44:03;5.63;;;4.33;;
438;SDS011;206;48.782;9.252;2023-03-21T01:46:34;4.47;;;3.63;;
438;SDS011;206;48.782;9.252;2023-03-21T01:49:02;6.73;;;4.73;;
438;SDS011;206;48.782;9.252;2023-03-21T01:51:33;4.70;;;4.10;;
438;SDS011;206;48.782;9.252;2023-03-21T01:54:01;7.57;;;3.83;;
438;SDS011;206;48.782;9.252;2023-03-21T01:56:32;6.90;;;4.53;;
438;SDS011;206;48.782;9.252;2023-03-21T01:59:20;5.03;;;4.73;;
438;SDS011;206;48.782;9.252;2023-03-21T02:01:54;5.30;;;4.80;;
438;SDS011;206;48.782;9.252;2023-03-21T02:04:23;5.50;;;5.03;;
438;SDS011;206;48.782;9.252;2023-03-21T02:06:53;6.57;;;5.77;;
438;SDS011;206;48.782;9.252;2023-03-21T02:09:24;4.53;;;4.30;;
438;SDS011;206;48.782;9.252;2023-03-21T02:11:52;4.47;;;4.17;;
438;SDS011;206;48.782;9.252;2023-03-21T02:14:19;8.50;;;5.67;;
438;SDS011;206;48.782;9.252;2023-03-21T02:16:47;5.43;;;5.13;;
438;SDS011;206;48.782;9.252;2023-03-21T02:22:06;6.13;;;4.80;;
438;SDS011;206;48.782;9.252;2023-03-21T02:27:24;8.60;;;5.10;;
438;SDS011;206;48.782;9.252;2023-03-21T02:37:50;10.73;;;4.70;;
438;SDS011;206;48.782;9.252;2023-03-21T02:40:27;5.77;;;4.70;;
438;SDS011;206;48.782;9.252;2023-03-21T02:43:17;6.90;;;5.57;;
438;SDS011;206;48.782;9.252;2023-03-21T02:46:27;5.30;;;4.33;;
438;SDS011;206;48.782;9.252;2023-03-21T02:51:33;6.20;;;3.83;;
438;SDS011;206;48.782;9.252;2023-03-21T02:54:02;7.10;;;4.47;;
438;SDS011;206;48.782;9.252;2023-03-21T02:56:31;6.20;;;4.63;;
438;SDS011;206;48.782;9.252;2023-03-21T02:58:59;5.90;;;3.60;;
438;SDS011;206;48.782;9.252;2023-03-21T03:01:25;6.33;;;5.47;;
438;SDS011;206;48.782;9.252;2023-03-21T03:03:52;4.80;;;4.50;;
438;SDS011;206;48.782;9.252;2023-03-21T03:06:19;5.57;;;4.40;;
438;SDS011;206;48.782;9.252;2023-03-21T03:08:54;5.37;;;4.33;;
438;SDS011;206;48.782;9.252;2023-03-21T03:11:35;7.60;;;5.07;;
438;SDS011;206;48.782;9.252;2023-03-21T03:19:18;7.17;;;4.80;;
438;SDS011;206;48.782;9.252;2023-03-21T03:22:00;6.50;;;4.97;;
438;SDS011;206;48.782;9.252;2023-03-21T03:24:35;10.10;;;5.10;;
438;SDS011;206;48.782;9.252;2023-03-21T03:27:10;4.70;;;4.13;;
438;SDS011;206;48.782;9.252;2023-03-21T03:29:40;4.67;;;4.37;;
438;SDS011;206;48.782;9.252;2023-03-21T03:32:16;5.63;;;5.13;;
438;SDS011;206;48.782;9.252;2023-03-21T03:34:47;4.80;;;4.50;;
438;SDS011;206;48.782;9.252;2023-03-21T03:37:20;7.70;;;5.50;;
438;SDS011;206;48.782;9.252;2023-03-21T03:42:57;9.33;;;4.90;;
438;SDS011;206;48.782;9.252;2023-03-21T03:45:33;4.40;;;3.83;;
438;SDS011;206;48.782;9.252;2023-03-21T03:53:43;6.70;;;4.80;;
438;SDS011;206;48.782;9.252;2023-03-21T03:56:14;7.70;;;4.60;;
438;SDS011;206;48.782;9.252;2023-03-21T03:58:40;6.40;;;4.60;;
438;SDS011;206;48.782;9.252;2023-03-21T04:01:06;7.17;;;5.20;;
438;SDS011;206;48.782;9.252;2023-03-21T04:03:33;4.97;;;4.53;;
438;SDS011;206;48.782;9.252;2023-03-21T04:06:01;6.67;;;4.73;;
438;SDS011;206;48.782;9.252;2023-03-21T04:08:28;5.90;;;4.70;;
438;SDS011;206;48.782;9.252;2023-03-21T04:10:54;9.73;;;5.90;;
438;SDS011;206;48.782;9.252;2023-03-21T04:13:20;6.63;;;4.90;;
438;SDS011;206;48.782;9.252;2023-03-21T04:15:46;4.90;;;4.10;;
438;SDS011;206;48.782;9.252;2023-03-21T04:18:11;5.27;;;4.40;;
438;SDS011;206;48.782;9.252;2023-03-21T04:20:37;6.20;;;5.20;;
438;SDS011;206;48.782;9.252;2023-03-21T04:23:03;6.73;;;4.57;;
438;SDS011;206;48.782;9.252;2023-03-21T04:25:32;4.67;;;4.37;;
438;SDS011;206;48.782;9.252;2023-03-21T04:27:58;5.70;;;5.30;;
438;SDS011;206;48.782;9.252;2023-03-21T04:30:24;5.63;;;4.40;;
438;SDS011;206;48.782;9.252;2023-03-21T04:32:50;5.50;;;4.60;;
438;SDS011;206;48.782;9.252;2023-03-21T04:35:21;5.70;;;4.40;;
438;SDS011;206;48.782;9.252;2023-03-21T04:37:47;4.73;;;4.03;;
438;SDS011;206;48.782;9.252;2023-03-21T04:40:14;7.60;;;4.37;;
438;SDS011;206;48.782;9.252;2023-03-21T04:42:43;6.27;;;5.10;;
438;SDS011;206;48.782;9.252;2023-03-21T04:45:18;8.50;;;5.57;;
438;SDS011;206;48.782;9.252;2023-03-21T04:47:43;4.77;;;4.10;;
438;SDS011;206;48.782;9.252;2023-03-21T04:50:09;6.30;;;4.77;;
438;SDS011;206;48.782;9.252;2023-03-21T04:52:36;6.00;;;4.93;;
438;SDS011;206;48.782;9.252;2023-03-21T04:55:02;8.13;;;5.73;;
438;SDS011;206;48.782;9.252;2023-03-21T04:57:28;6.10;;;5.13;;
438;SDS011;206;48.782;9.252;2023-03-21T04:59:53;8.30;;;5.13;;
438;SDS011;206;48.782;9.252;2023-03-21T05:02:19;4.70;;;3.80;;
438;SDS011;206;48.782;9.252;2023-03-21T05:04:45;5.27;;;4.47;;
438;SDS011;206;48.782;9.252;2023-03-21T05:07:10;5.03;;;4.73;;
438;SDS011;206;48.782;9.252;2023-03-21T05:09:36;7.27;;;4.93;;
438;SDS011;206;48.782;9.252;2023-03-21T05:12:02;5.10;;;4.37;;
438;SDS011;206;48.782;9.252;2023-03-21T05:14:28;7.53;;;4.50;;
438;SDS011;206;48.782;9.252;2023-03-21T05:16:54;5.23;;;5.00;;
438;SDS011;206;48.782;9.252;2023-03-21T05:19:25;6.50;;;5.87;;
438;SDS011;206;48.782;9.252;2023-03-21T05:22:05;10.80;;;6.20;;
438;SDS011;206;48.782;9.252;2023-03-21T05:24:33;9.40;;;5.63;;
438;SDS011;206;48.782;9.252;2023-03-21T05:27:03;7.40;;;5.83;;
438;SDS011;206;48.782;9.252;2023-03-21T05:29:29;9.77;;;6.73;;
438;SDS011;206;48.782;9.252;2023-03-21T05:31:57;17.10;;;6.57;;
438;SDS011;206;48.782;9.252;2023-03-21T05:34:24;7.33;;;5.67;;
438;SDS011;206;48.782;9.252;2023-03-21T05:36:51;19.27;;;6.20;;
438;SDS011;206;48.782;9.252;2023-03-21T05:39:16;8.30;;;5.27;;
438;SDS011;206;48.782;9.252;2023-03-21T05:41:42;8.17;;;6.57;;
438;SDS011;206;48.782;9.252;2023-03-21T05:44:08;7.73;;;5.97;;
438;SDS011;206;48.782;9.252;2023-03-21T05:46:34;8.50;;;6.80;;
438;SDS011;206;48.782;9.252;2023-03-21T05:48:59;7.83;;;6.07;;
438;SDS011;206;48.782;9.252;2023-03-21T05:51:25;8.20;;;5.30;;
438;SDS011;206;48.782;9.252;2023-03-21T05:53:51;8.67;;;5.73;;
438;SDS011;206;48.782;9.252;2023-03-21T05:56:16;11.57;;;6.37;;
438;SDS011;206;48.782;9.252;2023-03-21T05:58:42;9.00;;;5.37;;
438;SDS011;206;48.782;9.252;2023-03-21T06:01:08;6.47;;;5.60;;
438;SDS011;206;48.782;9.252;2023-03-21T06:03:34;9.67;;;6.77;;
438;SDS011;206;48.782;9.252;2023-03-21T06:05:59;7.70;;;5.63;;
438;SDS011;206;48.782;9.252;2023-03-21T06:08:27;9.30;;;5.23;;
438;SDS011;206;48.782;9.252;2023-03-21T06:10:53;6.73;;;5.90;;
438;SDS011;206;48.782;9.252;2023-03-21T06:13:19;6.60;;;4.93;;
438;SDS011;206;48.782;9.252;2023-03-21T06:15:45;7.37;;;5.80;;
438;SDS011;206;48.782;9.252;2023-03-21T06:18:11;10.20;;;5.37;;
438;SDS011;206;48.782;9.252;2023-03-21T06:20:36;14.03;;;6.50;;
438;SDS011;206;48.782;9.252;2023-03-21T06:23:02;7.43;;;5.70;;
438;SDS011;206;48.782;9.252;2023-03-21T06:25:27;9.10;;;4.97;;
438;SDS011;206;48.782;9.252;2023-03-21T06:27:53;10.77;;;6.57;;
438;SDS011;206;48.782;9.252;2023-03-21T06:30:19;6.33;;;5.17;;
438;SDS011;206;48.782;9.252;2023-03-21T06:32:44;7.40;;;4.97;;
438;SDS011;206;48.782;9.252;2023-03-21T06:35:10;6.03;;;4.90;;
438;SDS011;206;48.782;9.252;2023-03-21T06:37:36;6.03;;;4.50;;
438;SDS011;206;48.782;9.252;2023-03-21T06:40:02;8.27;;;5.00;;
438;SDS011;206;48.782;9.252;2023-03-21T06:42:29;6.83;;;4.17;;
438;SDS011;206;48.782;9.252;2023-03-21T06:44:56;13.07;;;5.60;;
438;SDS011;206;48.782;9.252;2023-03-21T06:47:22;9.30;;;4.80;;
438;SDS011;206;48.782;9.252;2023-03-21T06:49:47;4.57;;;4.27;;
438;SDS011;206;48.782;9.252;2023-03-21T06:52:13;4.57;;;4.27;;
438;SDS011;206;48.782;9.252;2023-03-21T06:54:38;6.53;;;4.50;;
438;SDS011;206;48.782;9.252;2023-03-21T06:57:04;6.03;;;5.73;;
438;SDS011;206;48.782;9.252;2023-03-21T06:59:30;5.20;;;4.90;;
438;SDS011;206;48.782;9.252;2023-03-21T07:01:55;7.93;;;5.37;;
438;SDS011;206;48.782;9.252;2023-03-21T07:04:21;6.17;;;5.37;;
438;SDS011;206;48.782;9.252;2023-03-21T07:06:47;5.03;;;4.80;;
438;SDS011;206;48.782;9.252;2023-03-21T07:09:13;5.40;;;5.10;;
438;SDS011;206;48.782;9.252;2023-03-21T07:11:41;5.43;;;4.77;;
438;SDS011;206;48.782;9.252;2023-03-21T07:14:07;7.53;;;5.57;;
438;SDS011;206;48.782;9.252;2023-03-21T07:16:32;8.60;;;4.67;;
438;SDS011;206;48.782;9.252;2023-03-21T07:18:58;5.60;;;5.27;;
438;SDS011;206;48.782;9.252;2023-03-21T07:21:23;7.63;;;5.00;;
438;SDS011;206;48.782;9.252;2023-03-21T07:23:49;6.13;;;5.80;;
438;SDS011;206;48.782;9.252;2023-03-21T07:26:15;6.67;;;4.80;;
438;SDS011;206;48.782;9.252;2023-03-21T07:28:42;10.20;;;4.77;;
438;SDS011;206;48.782;9.252;2023-03-21T07:31:11;8.27;;;4.80;;
438;SDS011;206;48.782;9.252;2023-03-21T07:33:38;4.40;;;4.17;;
438;SDS011;206;48.782;9.252;2023-03-21T07:36:07;6.67;;;4.67;;
438;SDS011;206;48.782;9.252;2023-03-21T07:38:35;4.80;;;4.50;;
438;SDS011;206;48.782;9.252;2023-03-21T07:41:01;6.27;;;4.67;;
438;SDS011;206;48.782;9.252;2023-03-21T07:43:26;16.77;;;4.50;;
438;SDS011;206;48.782;9.252;2023-03-21T07:45:55;4.90;;;4.00;;
438;SDS011;206;48.782;9.252;2023-03-21T07:48:21;4.40;;;3.90;;
438;SDS011;206;48.782;9.252;2023-03-21T07:50:47;5.37;;;3.77;;
438;SDS011;206;48.782;9.252;2023-03-21T07:53:13;4.97;;;4.57;;
438;SDS011;206;48.782;9.252;2023-03-21T07:55:39;4.17;;;3.70;;
438;SDS011;206;48.782;9.252;2023-03-21T07:58:04;13.07;;;5.23;;
438;SDS011;206;48.782;9.252;2023-03-21T08:00:30;10.43;;;4.90;;
438;SDS011;206;48.782;9.252;2023-03-21T08:02:56;6.17;;;4.70;;
438;SDS011;206;48.782;9.252;2023-03-21T08:05:24;6.07;;;4.47;;
438;SDS011;206;48.782;9.252;2023-03-21T08:07:55;4.73;;;4.03;;
438;SDS011;206;48.782;9.252;2023-03-21T08:10:21;6.87;;;5.10;;
438;SDS011;206;48.782;9.252;2023-03-21T08:12:47;8.27;;;5.90;;
438;SDS011;206;48.782;9.252;2023-03-21T08:15:13;5.63;;;4.60;;
438;SDS011;206;48.782;9.252;2023-03-21T08:17:40;6.33;;;3.87;;
438;SDS011;206;48.782;9.252;2023-03-21T08:20:09;7.20;;;4.60;;
438;SDS011;206;48.782;9.252;2023-03-21T08:22:37;6.23;;;4.30;;
438;SDS011;206;48.782;9.252;2023-03-21T08:25:03;8.37;;;4.57;;
438;SDS011;206;48.782;9.252;2023-03-21T08:27:30;6.90;;;4.30;;
438;SDS011;206;48.782;9.252;2023-03-21T08:29:57;6.50;;;4.50;;
438;SDS011;206;48.782;9.252;2023-03-21T08:32:23;8.70;;;4.40;;
438;SDS011;206;48.782;9.252;2023-03-21T08:34:57;8.30;;;5.10;;
438;SDS011;206;48.782;9.252;2023-03-21T08:37:23;6.20;;;3.47;;
438;SDS011;206;48.782;9.252;2023-03-21T08:39:49;5.50;;;4.10;;
438;SDS011;206;48.782;9.252;2023-03-21T08:42:15;5.53;;;5.00;;
438;SDS011;206;48.782;9.252;2023-03-21T08:44:41;5.27;;;4.97;;
438;SDS011;206;48.782;9.252;2023-03-21T08:47:06;8.03;;;3.70;;
438;SDS011;206;48.782;9.252;2023-03-21T08:49:33;3.73;;;3.53;;
438;SDS011;206;48.782;9.252;2023-03-21T08:51:59;10.50;;;5.30;;
438;SDS011;206;48.782;9.252;2023-03-21T08:54:25;5.20;;;4.20;;
438;SDS011;206;48.782;9.252;2023-03-21T08:56:51;5.73;;;3.90;;
438;SDS011;206;48.782;9.252;2023-03-21T08:59:16;6.00;;;3.70;;
438;SDS011;206;48.782;9.252;2023-03-21T09:01:42;4.33;;;3.63;;
438;SDS011;206;48.782;9.252;2023-03-21T09:04:07;5.03;;;3.63;;
438;SDS011;206;48.782;9.252;2023-03-21T09:06:38;5.77;;;3.03;;
438;SDS011;206;48.782;9.252;2023-03-21T09:09:09;5.40;;;3.67;;
438;SDS011;206;48.782;9.252;2023-03-21T09:11:35;3.87;;;3.67;;
438;SDS011;206;48.782;9.252;2023-03-21T09:14:01;7.27;;;4.03;;
438;SDS011;206;48.782;9.252;2023-03-21T09:16:26;4.10;;;3.90;;
438;SDS011;206;48.782;9.252;2023-03-21T09:18:52;5.83;;;4.00;;
438;SDS011;206;48.782;9.252;2023-03-21T09:21:20;5.13;;;3.60;;
438;SDS011;206;48.782;9.252;2023-03-21T09:23:47;4.47;;;4.07;;
438;SDS011;206;48.782;9.252;2023-03-21T09:26:16;4.33;;;3.83;;
438;SDS011;206;48.782;9.252;2023-03-21T09:28:43;6.23;;;3.90;;
438;SDS011;206;48.782;9.252;2023-03-21T09:31:10;4.80;;;3.27;;
438;SDS011;206;48.782;9.252;2023-03-21T09:33:38;5.03;;;4.00;;
438;SDS011;206;48.782;9.252;2023-03-21T09:36:05;4.23;;;3.20;;
438;SDS011;206;48.782;9.252;2023-03-21T09:38:35;4.87;;;2.93;;
438;SDS011;206;48.782;9.252;2023-03-21T09:44:05;6.37;;;4.17;;
438;SDS011;206;48.782;9.252;2023-03-21T09:46:50;4.03;;;2.77;;
438;SDS011;206;48.782;9.252;2023-03-21T09:49:34;4.50;;;3.23;;
438;SDS011;206;48.782;9.252;2023-03-21T09:52:11;4.53;;;2.73;;
438;SDS011;206;48.782;9.252;2023-03-21T09:54:42;2.10;;;1.80;;
438;SDS011;206;48.782;9.252;2023-03-21T10:00:06;1.87;;;1.80;;
438;SDS011;206;48.782;9.252;2023-03-21T10:02:44;6.43;;;4.00;;
438;SDS011;206;48.782;9.252;2023-03-21T10:05:23;3.33;;;2.93;;
438;SDS011;206;48.782;9.252;2023-03-21T10:10:29;4.47;;;3.07;;
438;SDS011;206;48.782;9.252;2023-03-21T10:13:00;8.20;;;2.77;;
438;SDS011;206;48.782;9.252;2023-03-21T10:15:25;3.00;;;2.50;;
438;SDS011;206;48.782;9.252;2023-03-21T10:17:53;3.80;;;2.90;;
438;SDS011;206;48.782;9.252;2023-03-21T10:20:28;2.23;;;1.87;;
438;SDS011;206;48.782;9.252;2023-03-21T10:23:06;3.53;;;2.60;;
438;SDS011;206;48.782;9.252;2023-03-21T10:25:38;4.80;;;2.77;;
438;SDS011;206;48.782;9.252;2023-03-21T10:28:06;4.20;;;2.40;;
438;SDS011;206;48.782;9.252;2023-03-21T10:33:10;2.50;;;2.33;;
438;SDS011;206;48.782;9.252;2023-03-21T10:35:39;2.83;;;2.63;;
438;SDS011;206;48.782;9.252;2023-03-21T10:38:12;3.73;;;2.10;;
438;SDS011;206;48.782;9.252;2023-03-21T10:40:43;5.70;;;2.80;;
438;SDS011;206;48.782;9.252;2023-03-21T10:43:16;1.93;;;1.83;;
438;SDS011;206;48.782;9.252;2023-03-21T10:46:05;2.27;;;2.10;;
438;SDS011;206;48.782;9.252;2023-03-21T10:48:43;2.53;;;2.33;;
438;SDS011;206;48.782;9.252;2023-03-21T10:51:14;3.10;;;1.73;;
438;SDS011;206;48.782;9.252;2023-03-21T10:53:50;3.80;;;2.70;;
438;SDS011;206;48.782;9.252;2023-03-21T10:56:21;2.30;;;2.03;;
438;SDS011;206;48.782;9.252;2023-03-21T10:58:50;2.50;;;1.80;;
438;SDS011;206;48.782;9.252;2023-03-21T11:01:23;3.83;;;2.07;;
438;SDS011;206;48.782;9.252;2023-03-21T11:04:28;3.43;;;1.80;;
438;SDS011;206;48.782;9.252;2023-03-21T11:06:58;3.30;;;1.87;;
438;SDS011;206;48.782;9.252;2023-03-21T11:09:49;1.80;;;1.70;;
438;SDS011;206;48.782;9.252;2023-03-21T11:12:18;4.83;;;2.50;;
438;SDS011;206;48.782;9.252;2023-03-21T11:14:53;3.40;;;1.60;;
438;SDS011;206;48.782;9.252;2023-03-21T11:17:20;2.33;;;2.00;;
438;SDS011;206;48.782;9.252;2023-03-21T11:20:02;3.60;;;2.00;;
438;SDS011;206;48.782;9.252;2023-03-21T11:22:35;2.00;;;1.70;;
438;SDS011;206;48.782;9.252;2023-03-21T11:25:07;4.03;;;2.03;;
438;SDS011;206;48.782;9.252;2023-03-21T11:27:36;4.37;;;2.03;;
438;SDS011;206;48.782;9.252;2023-03-21T11:30:18;9.00;;;1.57;;
438;SDS011;206;48.782;9.252;2023-03-21T11:32:49;3.00;;;1.50;;
438;SDS011;206;48.782;9.252;2023-03-21T11:35:19;1.10;;;1.07;;
438;SDS011;206;48.782;9.252;2023-03-21T11:37:51;2.27;;;1.73;;
438;SDS011;206;48.782;9.252;2023-03-21T11:42:53;1.30;;;1.13;;
438;SDS011;206;48.782;9.252;2023-03-21T11:45:25;3.10;;;1.40;;
438;SDS011;206;48.782;9.252;2023-03-21T11:47:54;1.33;;;1.20;;
438;SDS011;206;48.782;9.252;2023-03-21T11:56:19;1.70;;;1.30;;
438;SDS011;206;48.782;9.252;2023-03-21T11:59:08;1.47;;;1.13;;
438;SDS011;206;48.782;9.252;2023-03-21T12:20:50;2.93;;;2.00;;
438;SDS011;206;48.782;9.252;2023-03-21T12:23:31;5.23;;;2.00;;
438;SDS011;206;48.782;9.252;2023-03-21T12:29:04;2.50;;;1.80;;
438;SDS011;206;48.782;9.252;2023-03-21T12:34:16;4.90;;;3.40;;
438;SDS011;206;48.782;9.252;2023-03-21T12:44:53;4.90;;;2.90;;
438;SDS011;206;48.782;9.252;2023-03-21T12:47:28;5.03;;;3.00;;
438;SDS011;206;48.782;9.252;2023-03-21T12:49:59;8.03;;;3.20;;
438;SDS011;206;48.782;9.252;2023-03-21T12:52:53;3.50;;;3.07;;
438;SDS011;206;48.782;9.252;2023-03-21T12:55:23;4.80;;;2.60;;
438;SDS011;206;48.782;9.252;2023-03-21T13:00:53;2.47;;;2.27;;
438;SDS011;206;48.782;9.252;2023-03-21T13:03:25;11.10;;;4.27;;
438;SDS011;206;48.782;9.252;2023-03-21T13:05:57;4.70;;;2.63;;
438;SDS011;206;48.782;9.252;2023-03-21T13:11:23;3.20;;;2.50;;
438;SDS011;206;48.782;9.252;2023-03-21T13:24:46;5.60;;;2.77;;
438;SDS011;206;48.782;9.252;2023-03-21T13:32:34;6.20;;;3.60;;
438;SDS011;206;48.782;9.252;2023-03-21T13:37:54;3.70;;;2.40;;
438;SDS011;206;48.782;9.252;2023-03-21T13:40:24;4.73;;;2.97;;
438;SDS011;206;48.782;9.252;2023-03-21T13:42:54;3.75;;;2.78;;
438;SDS011;206;48.782;9.252;2023-03-21T13:45:27;3.80;;;2.10;;
438;SDS011;206;48.782;9.252;2023-03-21T13:47:57;5.40;;;2.40;;
438;SDS011;206;48.782;9.252;2023-03-21T13:55:44;4.63;;;2.43;;
438;SDS011;206;48.782;9.252;2023-03-21T13:58:23;4.50;;;2.23;;
438;SDS011;206;48.782;9.252;2023-03-21T14:09:36;3.30;;;2.37;;
438;SDS011;206;48.782;9.252;2023-03-21T14:12:06;4.83;;;3.53;;
438;SDS011;206;48.782;9.252;2023-03-21T14:14:45;6.03;;;2.50;;
438;SDS011;206;48.782;9.252;2023-03-21T14:17:21;5.57;;;3.13;;
438;SDS011;206;48.782;9.252;2023-03-21T14:19:52;5.10;;;3.37;;
438;SDS011;206;48.782;9.252;2023-03-21T14:22:20;2.63;;;2.20;;
438;SDS011;206;48.782;9.252;2023-03-21T14:24:47;4.40;;;2.97;;
438;SDS011;206;48.782;9.252;2023-03-21T14:27:18;5.77;;;3.70;;
438;SDS011;206;48.782;9.252;2023-03-21T14:29:45;4.10;;;3.17;;
438;SDS011;206;48.782;9.252;2023-03-21T14:32:16;3.30;;;2.63;;
438;SDS011;206;48.782;9.252;2023-03-21T14:34:45;4.43;;;2.30;;
438;SDS011;206;48.782;9.252;2023-03-21T14:37:24;3.63;;;3.17;;
438;SDS011;206;48.782;9.252;2023-03-21T14:40:18;4.93;;;2.67;;
438;SDS011;206;48.782;9.252;2023-03-21T14:42:50;2.80;;;2.60;;
438;SDS011;206;48.782;9.252;2023-03-21T14:45:22;3.00;;;2.30;;
438;SDS011;206;48.782;9.252;2023-03-21T14:50:22;4.17;;;2.70;;
438;SDS011;206;48.782;9.252;2023-03-21T14:52:55;5.57;;;2.60;;
438;SDS011;206;48.782;9.252;2023-03-21T14:55:22;3.67;;;2.33;;
438;SDS011;206;48.782;9.252;2023-03-21T14:57:47;9.20;;;3.10;;
438;SDS011;206;48.782;9.252;2023-03-21T15:00:17;2.40;;;2.20;;
438;SDS011;206;48.782;9.252;2023-03-21T15:02:49;3.07;;;2.57;;
438;SDS011;206;48.782;9.252;2023-03-21T15:05:24;3.77;;;3.57;;
438;SDS011;206;48.782;9.252;2023-03-21T15:07:54;5.47;;;3.80;;
438;SDS011;206;48.782;9.252;2023-03-21T15:10:22;6.43;;;3.23;;
438;SDS011;206;48.782;9.252;2023-03-21T15:12:54;6.23;;;2.93;;
438;SDS011;206;48.782;9.252;2023-03-21T15:15:21;3.43;;;2.40;;
438;SDS011;206;48.782;9.252;2023-03-21T15:17:49;3.53;;;3.33;;
438;SDS011;206;48.782;9.252;2023-03-21T15:20:17;7.13;;;3.33;;
438;SDS011;206;48.782;9.252;2023-03-21T15:22:45;5.30;;;2.63;;
438;SDS011;206;48.782;9.252;2023-03-21T15:25:19;3.60;;;2.33;;
438;SDS011;206;48.782;9.252;2023-03-21T15:27:49;3.17;;;2.37;;
438;SDS011;206;48.782;9.252;2023-03-21T15:32:52;6.30;;;2.93;;
438;SDS011;206;48.782;9.252;2023-03-21T15:35:24;4.93;;;3.00;;
438;SDS011;206;48.782;9.252;2023-03-21T15:37:58;4.63;;;2.50;;
438;SDS011;206;48.782;9.252;2023-03-21T15:42:55;6.70;;;3.07;;
438;SDS011;206;48.782;9.252;2023-03-21T15:45:48;3.67;;;2.43;;
438;SDS011;206;48.782;9.252;2023-03-21T15:48:28;3.00;;;2.80;;
438;SDS011;206;48.782;9.252;2023-03-21T15:51:05;3.67;;;2.27;;
438;SDS011;206;48.782;9.252;2023-03-21T15:53:35;5.17;;;2.40;;
438;SDS011;206;48.782;9.252;2023-03-21T15:56:02;4.60;;;2.47;;
438;SDS011;206;48.782;9.252;2023-03-21T15:58:33;5.20;;;2.37;;
438;SDS011;206;48.782;9.252;2023-03-21T16:01:04;3.67;;;2.30;;
438;SDS011;206;48.782;9.252;2023-03-21T16:03:35;2.77;;;2.43;;
438;SDS011;206;48.782;9.252;2023-03-21T16:08:42;4.20;;;2.77;;
438;SDS011;206;48.782;9.252;2023-03-21T16:11:15;4.00;;;3.00;;
438;SDS011;206;48.782;9.252;2023-03-21T16:13:52;4.23;;;2.70;;
438;SDS011;206;48.782;9.252;2023-03-21T16:16:25;5.80;;;2.90;;
438;SDS011;206;48.782;9.252;2023-03-21T16:18:53;10.00;;;2.83;;
438;SDS011;206;48.782;9.252;2023-03-21T16:21:20;6.47;;;3.07;;
438;SDS011;206;48.782;9.252;2023-03-21T16:23:47;4.30;;;2.40;;
438;SDS011;206;48.782;9.252;2023-03-21T16:26:14;5.60;;;3.50;;
438;SDS011;206;48.782;9.252;2023-03-21T16:28:42;7.20;;;3.10;;
438;SDS011;206;48.782;9.252;2023-03-21T16:31:13;7.63;;;2.87;;
438;SDS011;206;48.782;9.252;2023-03-21T16:33:40;4.00;;;3.03;;
438;SDS011;206;48.782;9.252;2023-03-21T16:36:10;9.60;;;3.17;;
438;SDS011;206;48.782;9.252;2023-03-21T16:38:42;3.53;;;2.80;;
438;SDS011;206;48.782;9.252;2023-03-21T16:41:12;5.60;;;3.00;;
438;SDS011;206;48.782;9.252;2023-03-21T16:43:39;3.30;;;2.50;;
438;SDS011;206;48.782;9.252;2023-03-21T16:46:12;3.60;;;2.90;;
438;SDS011;206;48.782;9.252;2023-03-21T16:48:39;3.47;;;2.50;;
438;SDS011;206;48.782;9.252;2023-03-21T16:51:10;4.20;;;2.67;;
438;SDS011;206;48.782;9.252;2023-03-21T16:53:43;4.70;;;2.93;;
438;SDS011;206;48.782;9.252;2023-03-21T16:56:16;11.10;;;3.20;;
438;SDS011;206;48.782;9.252;2023-03-21T16:58:47;6.50;;;2.80;;
438;SDS011;206;48.782;9.252;2023-03-21T17:01:14;4.30;;;2.67;;
438;SDS011;206;48.782;9.252;2023-03-21T17:03:43;5.30;;;3.20;;
438;SDS011;206;48.782;9.252;2023-03-21T17:06:13;4.20;;;2.93;;
438;SDS011;206;48.782;9.252;2023-03-21T17:08:40;3.43;;;2.90;;
438;SDS011;206;48.782;9.252;2023-03-21T17:11:10;9.73;;;2.97;;
438;SDS011;206;48.782;9.252;2023-03-21T17:13:36;3.77;;;2.40;;
438;SDS011;206;48.782;9.252;2023-03-21T17:16:02;7.30;;;2.73;;
438;SDS011;206;48.782;9.252;2023-03-21T17:18:28;6.67;;;2.97;;
438;SDS011;206;48.782;9.252;2023-03-21T17:20:53;2.87;;;2.47;;
438;SDS011;206;48.782;9.252;2023-03-21T17:23:19;5.00;;;2.77;;
438;SDS011;206;48.782;9.252;2023-03-21T17:25:45;7.43;;;3.33;;
438;SDS011;206;48.782;9.252;2023-03-21T17:28:11;4.93;;;2.80;;
438;SDS011;206;48.782;9.252;2023-03-21T17:30:36;5.23;;;2.70;;
438;SDS011;206;48.782;9.252;2023-03-21T17:33:03;5.20;;;2.43;;
438;SDS011;206;48.782;9.252;2023-03-21T17:35:29;4.57;;;3.03;;
438;SDS011;206;48.782;9.252;2023-03-21T17:37:55;3.97;;;3.10;;
438;SDS011;206;48.782;9.252;2023-03-21T17:40:31;14.30;;;4.27;;
438;SDS011;206;48.782;9.252;2023-03-21T17:42:57;4.90;;;3.37;;
438;SDS011;206;48.782;9.252;2023-03-21T17:45:24;3.93;;;3.20;;
438;SDS011;206;48.782;9.252;2023-03-21T17:47:51;5.53;;;2.33;;
438;SDS011;206;48.782;9.252;2023-03-21T17:50:21;5.43;;;3.03;;
438;SDS011;206;48.782;9.252;2023-03-21T17:52:49;4.00;;;3.53;;
438;SDS011;206;48.782;9.252;2023-03-21T17:55:15;5.60;;;3.27;;
438;SDS011;206;48.782;9.252;2023-03-21T17:57:45;4.30;;;2.80;;
438;SDS011;206;48.782;9.252;2023-03-21T18:00:19;3.50;;;2.80;;
438;SDS011;206;48.782;9.252;2023-03-21T18:02:55;4.80;;;2.93;;
438;SDS011;206;48.782;9.252;2023-03-21T18:05:21;3.87;;;2.33;;
438;SDS011;206;48.782;9.252;2023-03-21T18:07:49;16.63;;;3.90;;
438;SDS011;206;48.782;9.252;2023-03-21T18:10:17;16.30;;;3.80;;